Terminal Aerodrome Forecast
Issued by NWS Charleston, SC

Home | Current Version | Previous Version | Text Only | Print | Product List | Glossary On
Versions: 1 2 3 4 5 6 7 8 9 10 11 12 13 14
000
FTUS42 KCHS 240831 AAA
TAFCHS
TAF AMD
KCHS 240831Z 2409/2506 23007KT P6SM VCSH BKN025 BKN050
      TEMPO 2410/2414 6SM SHRA SCT025 BKN035
     FM241800 21012G17KT P6SM SCT035 BKN060
     FM242300 20009KT P6SM SCT025 BKN150=

USA.gov is the U.S. government's official web portal to all federal, state and local government web resources and services.